sensor_id;sensor_type;location;lat;lon;timestamp;temperature;humidity
6879;DHT22;3478;51.462;7.338;2023-04-01T00:02:36;9.70;1.00
6879;DHT22;3478;51.462;7.338;2023-04-01T00:07:40;9.70;1.00
6879;DHT22;3478;51.462;7.338;2023-04-01T00:12:42;9.60;92.10
6879;DHT22;3478;51.462;7.338;2023-04-01T00:17:45;9.60;99.90
6879;DHT22;3478;51.462;7.338;2023-04-01T00:22:48;9.60;99.90
6879;DHT22;3478;51.462;7.338;2023-04-01T00:27:50;9.60;99.90
6879;DHT22;3478;51.462;7.338;2023-04-01T00:32:52;9.60;99.90
6879;DHT22;3478;51.462;7.338;2023-04-01T00:37:55;9.60;99.90
6879;DHT22;3478;51.462;7.338;2023-04-01T00:42:58;9.60;99.90
6879;DHT22;3478;51.462;7.338;2023-04-01T00:48:03;9.60;99.90
6879;DHT22;3478;51.462;7.338;2023-04-01T00:53:08;9.50;99.90
6879;DHT22;3478;51.462;7.338;2023-04-01T00:58:14;9.50;99.90
6879;DHT22;3478;51.462;7.338;2023-04-01T01:03:18;9.50;99.90
6879;DHT22;3478;51.462;7.338;2023-04-01T01:08:29;9.50;99.90
6879;DHT22;3478;51.462;7.338;2023-04-01T01:13:38;9.50;99.90
6879;DHT22;3478;51.462;7.338;2023-04-01T01:18:47;9.40;99.90
6879;DHT22;3478;51.462;7.338;2023-04-01T01:24:11;9.40;99.90
6879;DHT22;3478;51.462;7.338;2023-04-01T01:34:53;9.40;99.90
6879;DHT22;3478;51.462;7.338;2023-04-01T01:40:03;9.40;99.90
6879;DHT22;3478;51.462;7.338;2023-04-01T01:45:09;9.40;99.90
6879;DHT22;3478;51.462;7.338;2023-04-01T01:50:13;9.40;99.90
6879;DHT22;3478;51.462;7.338;2023-04-01T01:55:31;9.30;99.90
6879;DHT22;3478;51.462;7.338;2023-04-01T02:00:33;9.40;99.90
6879;DHT22;3478;51.462;7.338;2023-04-01T02:05:36;9.30;99.90
6879;DHT22;3478;51.462;7.338;2023-04-01T02:10:42;9.30;99.90
6879;DHT22;3478;51.462;7.338;2023-04-01T02:15:47;9.30;99.90
6879;DHT22;3478;51.462;7.338;2023-04-01T02:20:50;9.40;99.90
6879;DHT22;3478;51.462;7.338;2023-04-01T02:25:54;9.30;99.90
6879;DHT22;3478;51.462;7.338;2023-04-01T02:30:57;9.40;99.90
6879;DHT22;3478;51.462;7.338;2023-04-01T02:36:03;9.30;99.90
6879;DHT22;3478;51.462;7.338;2023-04-01T02:41:06;9.30;99.90
6879;DHT22;3478;51.462;7.338;2023-04-01T02:46:08;9.40;99.90
6879;DHT22;3478;51.462;7.338;2023-04-01T02:51:10;9.30;99.90
6879;DHT22;3478;51.462;7.338;2023-04-01T02:56:13;9.30;99.90
6879;DHT22;3478;51.462;7.338;2023-04-01T03:01:15;9.30;99.90
6879;DHT22;3478;51.462;7.338;2023-04-01T03:06:17;9.30;99.90
6879;DHT22;3478;51.462;7.338;2023-04-01T03:11:20;9.30;99.90
6879;DHT22;3478;51.462;7.338;2023-04-01T03:16:22;9.30;99.90
6879;DHT22;3478;51.462;7.338;2023-04-01T03:21:24;9.20;99.90
6879;DHT22;3478;51.462;7.338;2023-04-01T03:26:28;9.20;99.90
6879;DHT22;3478;51.462;7.338;2023-04-01T03:31:30;9.20;99.90
6879;DHT22;3478;51.462;7.338;2023-04-01T03:36:32;9.20;99.90
6879;DHT22;3478;51.462;7.338;2023-04-01T03:41:37;9.20;99.90
6879;DHT22;3478;51.462;7.338;2023-04-01T03:46:39;9.20;99.90
6879;DHT22;3478;51.462;7.338;2023-04-01T03:51:42;9.10;99.90
6879;DHT22;3478;51.462;7.338;2023-04-01T03:56:45;9.10;99.90
6879;DHT22;3478;51.462;7.338;2023-04-01T04:01:47;9.10;99.90
6879;DHT22;3478;51.462;7.338;2023-04-01T04:06:49;9.10;99.90
6879;DHT22;3478;51.462;7.338;2023-04-01T04:11:53;9.10;99.90
6879;DHT22;3478;51.462;7.338;2023-04-01T04:16:55;9.10;99.90
6879;DHT22;3478;51.462;7.338;2023-04-01T04:21:56;9.10;99.90
6879;DHT22;3478;51.462;7.338;2023-04-01T04:27:02;9.10;99.90
6879;DHT22;3478;51.462;7.338;2023-04-01T04:32:04;9.10;99.90
6879;DHT22;3478;51.462;7.338;2023-04-01T04:37:06;9.10;99.90
6879;DHT22;3478;51.462;7.338;2023-04-01T04:42:10;9.10;99.90
6879;DHT22;3478;51.462;7.338;2023-04-01T04:47:11;9.10;99.90
6879;DHT22;3478;51.462;7.338;2023-04-01T04:52:13;9.20;99.90
6879;DHT22;3478;51.462;7.338;2023-04-01T04:57:17;9.20;99.90
6879;DHT22;3478;51.462;7.338;2023-04-01T05:02:18;9.20;99.90
6879;DHT22;3478;51.462;7.338;2023-04-01T05:07:20;9.20;99.90
6879;DHT22;3478;51.462;7.338;2023-04-01T05:12:24;9.30;99.90
6879;DHT22;3478;51.462;7.338;2023-04-01T05:17:25;9.20;99.90
6879;DHT22;3478;51.462;7.338;2023-04-01T05:22:27;9.20;99.90
6879;DHT22;3478;51.462;7.338;2023-04-01T05:27:31;9.30;99.90
6879;DHT22;3478;51.462;7.338;2023-04-01T05:32:33;9.30;99.90
6879;DHT22;3478;51.462;7.338;2023-04-01T05:37:35;9.30;99.90
6879;DHT22;3478;51.462;7.338;2023-04-01T05:42:38;9.30;99.90
6879;DHT22;3478;51.462;7.338;2023-04-01T05:47:40;9.30;99.90
6879;DHT22;3478;51.462;7.338;2023-04-01T05:52:42;9.30;99.90
6879;DHT22;3478;51.462;7.338;2023-04-01T05:57:46;9.30;99.90
6879;DHT22;3478;51.462;7.338;2023-04-01T06:02:48;9.40;99.90
6879;DHT22;3478;51.462;7.338;2023-04-01T06:07:56;9.40;99.90
6879;DHT22;3478;51.462;7.338;2023-04-01T06:13:07;9.40;99.90
6879;DHT22;3478;51.462;7.338;2023-04-01T06:18:43;9.40;99.90
6879;DHT22;3478;51.462;7.338;2023-04-01T06:23:54;9.40;99.90
6879;DHT22;3478;51.462;7.338;2023-04-01T06:29:34;9.40;99.90
6879;DHT22;3478;51.462;7.338;2023-04-01T06:45:43;9.50;99.90
6879;DHT22;3478;51.462;7.338;2023-04-01T06:50:54;9.50;99.90
6879;DHT22;3478;51.462;7.338;2023-04-01T06:56:02;9.50;99.90
6879;DHT22;3478;51.462;7.338;2023-04-01T07:01:08;9.50;99.90
6879;DHT22;3478;51.462;7.338;2023-04-01T07:06:14;9.50;99.90
6879;DHT22;3478;51.462;7.338;2023-04-01T07:11:24;9.50;99.90
6879;DHT22;3478;51.462;7.338;2023-04-01T07:16:30;9.40;99.90
6879;DHT22;3478;51.462;7.338;2023-04-01T07:21:36;9.50;99.90
6879;DHT22;3478;51.462;7.338;2023-04-01T07:26:40;9.50;99.90
6879;DHT22;3478;51.462;7.338;2023-04-01T07:32:01;9.40;99.90
6879;DHT22;3478;51.462;7.338;2023-04-01T07:37:12;9.50;99.90
6879;DHT22;3478;51.462;7.338;2023-04-01T07:42:23;9.60;99.90
6879;DHT22;3478;51.462;7.338;2023-04-01T07:47:39;9.60;99.90
6879;DHT22;3478;51.462;7.338;2023-04-01T07:52:49;9.60;99.90
6879;DHT22;3478;51.462;7.338;2023-04-01T07:57:58;9.60;99.90
6879;DHT22;3478;51.462;7.338;2023-04-01T08:03:16;9.70;99.90
6879;DHT22;3478;51.462;7.338;2023-04-01T08:08:31;9.70;99.90
6879;DHT22;3478;51.462;7.338;2023-04-01T08:13:39;9.70;99.90
6879;DHT22;3478;51.462;7.338;2023-04-01T08:18:53;9.70;99.90
6879;DHT22;3478;51.462;7.338;2023-04-01T08:24:10;10.00;99.90
6879;DHT22;3478;51.462;7.338;2023-04-01T08:29:15;10.00;99.90
6879;DHT22;3478;51.462;7.338;2023-04-01T08:34:23;9.90;99.90
6879;DHT22;3478;51.462;7.338;2023-04-01T08:39:29;9.90;99.90
6879;DHT22;3478;51.462;7.338;2023-04-01T08:45:10;9.90;99.90
6879;DHT22;3478;51.462;7.338;2023-04-01T08:50:31;9.80;99.90
6879;DHT22;3478;51.462;7.338;2023-04-01T08:55:43;9.80;99.90
6879;DHT22;3478;51.462;7.338;2023-04-01T09:00:50;9.70;99.90
6879;DHT22;3478;51.462;7.338;2023-04-01T09:06:17;9.70;99.90
6879;DHT22;3478;51.462;7.338;2023-04-01T09:11:33;9.70;99.90
6879;DHT22;3478;51.462;7.338;2023-04-01T09:17:00;9.60;99.90
6879;DHT22;3478;51.462;7.338;2023-04-01T09:22:32;9.70;99.90
6879;DHT22;3478;51.462;7.338;2023-04-01T09:27:43;9.70;99.90
6879;DHT22;3478;51.462;7.338;2023-04-01T09:38:29;9.80;99.90
6879;DHT22;3478;51.462;7.338;2023-04-01T09:43:44;9.80;99.90
6879;DHT22;3478;51.462;7.338;2023-04-01T09:54:41;9.80;99.90
6879;DHT22;3478;51.462;7.338;2023-04-01T10:00:20;9.80;99.90
6879;DHT22;3478;51.462;7.338;2023-04-01T10:05:58;9.90;99.90
6879;DHT22;3478;51.462;7.338;2023-04-01T10:28:36;10.20;99.90
6879;DHT22;3478;51.462;7.338;2023-04-01T10:33:59;10.30;99.90
6879;DHT22;3478;51.462;7.338;2023-04-01T10:45:24;10.20;99.90
6879;DHT22;3478;51.462;7.338;2023-04-01T10:51:04;10.20;99.90
6879;DHT22;3478;51.462;7.338;2023-04-01T10:56:25;10.30;99.90
6879;DHT22;3478;51.462;7.338;2023-04-01T11:07:44;10.30;99.90
6879;DHT22;3478;51.462;7.338;2023-04-01T11:24:26;10.20;99.90
6879;DHT22;3478;51.462;7.338;2023-04-01T11:29:58;10.20;99.90
6879;DHT22;3478;51.462;7.338;2023-04-01T11:35:29;10.20;99.90
6879;DHT22;3478;51.462;7.338;2023-04-01T11:40:39;10.20;99.90
6879;DHT22;3478;51.462;7.338;2023-04-01T11:45:50;10.20;99.90
6879;DHT22;3478;51.462;7.338;2023-04-01T11:51:29;10.20;99.90
6879;DHT22;3478;51.462;7.338;2023-04-01T11:56:52;10.20;99.90
6879;DHT22;3478;51.462;7.338;2023-04-01T12:02:01;10.30;99.90
6879;DHT22;3478;51.462;7.338;2023-04-01T12:07:15;10.40;99.90
6879;DHT22;3478;51.462;7.338;2023-04-01T12:12:29;10.40;99.90
6879;DHT22;3478;51.462;7.338;2023-04-01T12:17:41;10.60;99.90
6879;DHT22;3478;51.462;7.338;2023-04-01T12:22:51;10.50;99.90
6879;DHT22;3478;51.462;7.338;2023-04-01T12:28:09;10.50;99.90
6879;DHT22;3478;51.462;7.338;2023-04-01T12:33:45;10.50;99.90
6879;DHT22;3478;51.462;7.338;2023-04-01T12:39:03;10.60;99.90
6879;DHT22;3478;51.462;7.338;2023-04-01T12:44:23;10.60;99.90
6879;DHT22;3478;51.462;7.338;2023-04-01T12:49:56;10.60;99.90
6879;DHT22;3478;51.462;7.338;2023-04-01T13:00:54;10.60;99.90
6879;DHT22;3478;51.462;7.338;2023-04-01T13:06:19;10.80;99.90
6879;DHT22;3478;51.462;7.338;2023-04-01T13:11:32;10.80;99.90
6879;DHT22;3478;51.462;7.338;2023-04-01T13:16:41;10.90;99.90
6879;DHT22;3478;51.462;7.338;2023-04-01T13:21:54;11.00;99.90
6879;DHT22;3478;51.462;7.338;2023-04-01T13:27:06;11.10;99.90
6879;DHT22;3478;51.462;7.338;2023-04-01T13:32:19;10.90;99.90
6879;DHT22;3478;51.462;7.338;2023-04-01T13:37:35;10.80;99.90
6879;DHT22;3478;51.462;7.338;2023-04-01T13:42:44;10.80;99.90
6879;DHT22;3478;51.462;7.338;2023-04-01T13:53:45;10.70;99.90
6879;DHT22;3478;51.462;7.338;2023-04-01T13:59:03;10.70;99.90
6879;DHT22;3478;51.462;7.338;2023-04-01T14:04:42;10.60;99.90
6879;DHT22;3478;51.462;7.338;2023-04-01T14:09:59;10.50;99.90
6879;DHT22;3478;51.462;7.338;2023-04-01T14:15:19;10.50;99.90
6879;DHT22;3478;51.462;7.338;2023-04-01T14:20:41;10.40;99.90
6879;DHT22;3478;51.462;7.338;2023-04-01T14:25:58;10.40;99.90
6879;DHT22;3478;51.462;7.338;2023-04-01T14:31:21;10.40;99.90
6879;DHT22;3478;51.462;7.338;2023-04-01T14:36:36;10.40;99.90
6879;DHT22;3478;51.462;7.338;2023-04-01T14:41:47;10.40;99.90
6879;DHT22;3478;51.462;7.338;2023-04-01T14:47:11;10.40;99.90
6879;DHT22;3478;51.462;7.338;2023-04-01T14:52:28;10.30;99.90
6879;DHT22;3478;51.462;7.338;2023-04-01T14:57:32;10.30;99.90
6879;DHT22;3478;51.462;7.338;2023-04-01T15:02:46;10.20;99.90
6879;DHT22;3478;51.462;7.338;2023-04-01T15:08:05;10.20;99.90
6879;DHT22;3478;51.462;7.338;2023-04-01T15:13:13;10.20;99.90
6879;DHT22;3478;51.462;7.338;2023-04-01T15:18:21;10.30;99.90
6879;DHT22;3478;51.462;7.338;2023-04-01T15:23:37;10.40;99.90
6879;DHT22;3478;51.462;7.338;2023-04-01T15:28:49;10.40;99.90
6879;DHT22;3478;51.462;7.338;2023-04-01T15:34:07;10.40;99.90
6879;DHT22;3478;51.462;7.338;2023-04-01T15:39:14;10.40;99.90
6879;DHT22;3478;51.462;7.338;2023-04-01T15:44:42;10.30;99.90
6879;DHT22;3478;51.462;7.338;2023-04-01T15:49:50;10.30;99.90
6879;DHT22;3478;51.462;7.338;2023-04-01T15:55:15;10.40;99.90
6879;DHT22;3478;51.462;7.338;2023-04-01T16:00:26;10.50;99.90
6879;DHT22;3478;51.462;7.338;2023-04-01T16:05:39;10.50;99.90
6879;DHT22;3478;51.462;7.338;2023-04-01T16:11:04;10.50;99.90
6879;DHT22;3478;51.462;7.338;2023-04-01T16:16:19;10.50;99.90
6879;DHT22;3478;51.462;7.338;2023-04-01T16:21:33;10.50;99.90
6879;DHT22;3478;51.462;7.338;2023-04-01T16:26:43;10.40;99.90
6879;DHT22;3478;51.462;7.338;2023-04-01T16:31:51;10.30;99.90
6879;DHT22;3478;51.462;7.338;2023-04-01T16:37:03;10.30;99.90
6879;DHT22;3478;51.462;7.338;2023-04-01T16:42:16;10.30;99.90
6879;DHT22;3478;51.462;7.338;2023-04-01T16:47:23;10.30;99.90
6879;DHT22;3478;51.462;7.338;2023-04-01T16:52:40;10.30;99.90
6879;DHT22;3478;51.462;7.338;2023-04-01T16:57:50;10.30;99.90
6879;DHT22;3478;51.462;7.338;2023-04-01T17:03:01;10.30;99.90
6879;DHT22;3478;51.462;7.338;2023-04-01T17:08:13;10.20;99.90
6879;DHT22;3478;51.462;7.338;2023-04-01T17:13:31;10.20;99.90
6879;DHT22;3478;51.462;7.338;2023-04-01T17:18:40;10.20;99.90
6879;DHT22;3478;51.462;7.338;2023-04-01T17:23:50;10.10;99.90
6879;DHT22;3478;51.462;7.338;2023-04-01T17:28:58;10.10;99.90
6879;DHT22;3478;51.462;7.338;2023-04-01T17:34:25;10.10;99.90
6879;DHT22;3478;51.462;7.338;2023-04-01T17:39:37;10.10;99.90
6879;DHT22;3478;51.462;7.338;2023-04-01T17:44:54;10.10;99.90
6879;DHT22;3478;51.462;7.338;2023-04-01T17:50:05;10.10;99.90
6879;DHT22;3478;51.462;7.338;2023-04-01T18:01:06;10.00;99.90
6879;DHT22;3478;51.462;7.338;2023-04-01T18:06:14;10.00;99.90
6879;DHT22;3478;51.462;7.338;2023-04-01T18:11:30;10.00;99.90
6879;DHT22;3478;51.462;7.338;2023-04-01T18:16:47;10.00;99.90
6879;DHT22;3478;51.462;7.338;2023-04-01T18:21:55;10.10;99.90
6879;DHT22;3478;51.462;7.338;2023-04-01T18:27:03;10.10;99.90
6879;DHT22;3478;51.462;7.338;2023-04-01T18:32:18;10.00;99.90
6879;DHT22;3478;51.462;7.338;2023-04-01T18:37:27;10.00;99.90
6879;DHT22;3478;51.462;7.338;2023-04-01T18:42:41;10.00;99.90
6879;DHT22;3478;51.462;7.338;2023-04-01T18:47:54;10.00;99.90
6879;DHT22;3478;51.462;7.338;2023-04-01T18:53:08;10.00;99.90
6879;DHT22;3478;51.462;7.338;2023-04-01T18:58:23;10.00;99.90
6879;DHT22;3478;51.462;7.338;2023-04-01T19:03:33;10.10;99.90
6879;DHT22;3478;51.462;7.338;2023-04-01T19:08:39;10.00;99.90
6879;DHT22;3478;51.462;7.338;2023-04-01T19:13:49;10.10;99.90
6879;DHT22;3478;51.462;7.338;2023-04-01T19:19:16;10.10;99.90
6879;DHT22;3478;51.462;7.338;2023-04-01T19:30:02;10.00;99.90
6879;DHT22;3478;51.462;7.338;2023-04-01T19:35:18;10.00;99.90
6879;DHT22;3478;51.462;7.338;2023-04-01T19:40:35;10.00;99.90
6879;DHT22;3478;51.462;7.338;2023-04-01T19:45:43;10.00;99.90
6879;DHT22;3478;51.462;7.338;2023-04-01T19:50:52;10.00;99.90
6879;DHT22;3478;51.462;7.338;2023-04-01T19:56:01;10.00;99.90
6879;DHT22;3478;51.462;7.338;2023-04-01T20:01:06;10.10;99.90
6879;DHT22;3478;51.462;7.338;2023-04-01T20:06:20;10.10;99.90
6879;DHT22;3478;51.462;7.338;2023-04-01T20:11:34;10.10;99.90
6879;DHT22;3478;51.462;7.338;2023-04-01T20:16:59;10.10;99.90
6879;DHT22;3478;51.462;7.338;2023-04-01T20:22:08;10.20;99.90
6879;DHT22;3478;51.462;7.338;2023-04-01T20:27:21;10.10;99.90
6879;DHT22;3478;51.462;7.338;2023-04-01T20:32:43;10.10;99.90
6879;DHT22;3478;51.462;7.338;2023-04-01T20:37:50;10.00;99.90
6879;DHT22;3478;51.462;7.338;2023-04-01T20:43:10;9.90;99.90
6879;DHT22;3478;51.462;7.338;2023-04-01T20:48:36;9.90;99.90
6879;DHT22;3478;51.462;7.338;2023-04-01T20:53:50;9.90;99.90
6879;DHT22;3478;51.462;7.338;2023-04-01T20:58:58;9.90;99.90
6879;DHT22;3478;51.462;7.338;2023-04-01T21:04:17;9.70;99.90
6879;DHT22;3478;51.462;7.338;2023-04-01T21:09:37;9.50;99.90
6879;DHT22;3478;51.462;7.338;2023-04-01T21:14:53;9.50;99.90
6879;DHT22;3478;51.462;7.338;2023-04-01T21:20:11;9.30;99.90
6879;DHT22;3478;51.462;7.338;2023-04-01T21:25:27;9.30;99.90
6879;DHT22;3478;51.462;7.338;2023-04-01T21:30:40;9.20;99.90
6879;DHT22;3478;51.462;7.338;2023-04-01T21:35:53;9.20;99.90
6879;DHT22;3478;51.462;7.338;2023-04-01T21:41:17;9.20;99.90
6879;DHT22;3478;51.462;7.338;2023-04-01T21:52:24;9.20;99.90
6879;DHT22;3478;51.462;7.338;2023-04-01T22:08:56;8.80;99.90
6879;DHT22;3478;51.462;7.338;2023-04-01T22:14:06;8.80;99.90
6879;DHT22;3478;51.462;7.338;2023-04-01T22:19:16;8.70;99.90
6879;DHT22;3478;51.462;7.338;2023-04-01T22:24:25;8.70;99.90
6879;DHT22;3478;51.462;7.338;2023-04-01T22:29:34;8.70;99.90
6879;DHT22;3478;51.462;7.338;2023-04-01T22:34:42;8.60;99.90
6879;DHT22;3478;51.462;7.338;2023-04-01T22:39:56;8.50;99.90
6879;DHT22;3478;51.462;7.338;2023-04-01T22:45:17;8.30;99.90
6879;DHT22;3478;51.462;7.338;2023-04-01T22:50:26;8.30;99.90
6879;DHT22;3478;51.462;7.338;2023-04-01T22:55:34;8.30;99.90
6879;DHT22;3478;51.462;7.338;2023-04-01T23:00:42;8.30;99.90
6879;DHT22;3478;51.462;7.338;2023-04-01T23:05:49;8.20;99.90
6879;DHT22;3478;51.462;7.338;2023-04-01T23:10:54;8.20;99.90
6879;DHT22;3478;51.462;7.338;2023-04-01T23:15:59;8.10;99.90
6879;DHT22;3478;51.462;7.338;2023-04-01T23:21:09;7.90;99.90
6879;DHT22;3478;51.462;7.338;2023-04-01T23:26:17;7.90;99.90
6879;DHT22;3478;51.462;7.338;2023-04-01T23:31:31;7.80;99.90
6879;DHT22;3478;51.462;7.338;2023-04-01T23:36:39;7.70;99.90
6879;DHT22;3478;51.462;7.338;2023-04-01T23:41:42;7.70;99.90
6879;DHT22;3478;51.462;7.338;2023-04-01T23:46:47;7.70;99.90
6879;DHT22;3478;51.462;7.338;2023-04-01T23:51:53;7.70;99.90
6879;DHT22;3478;51.462;7.338;2023-04-01T23:56:56;7.70;99.90
